Time;durP1;ratioP1;P1;durP2;ratioP2;P2;SDS_P1;SDS_P2;PMS_P1;PMS_P2;Temp;Humidity;BMP_temperature;BMP_pressure;BME280_temperature;BME280_humidity;BME280_pressure;Samples;Min_cycle;Max_cycle;Signal;HPM_P1;HPM_P2
2023/05/01 00:00:15;;;;;;;3.50;2.30;;;14.50;63.40;14.50;96349.00;;;;5089742;28;20282;-82
2023/05/01 00:02:42;;;;;;;2.30;2.20;;;14.40;63.30;14.50;96350.00;;;;5098107;28;20238;-81
2023/05/01 00:05:10;;;;;;;2.70;2.50;;;14.40;63.20;14.50;96349.00;;;;5097535;28;20203;-81
2023/05/01 00:07:41;;;;;;;2.37;2.27;;;14.40;64.10;14.40;96335.00;;;;5099029;28;20199;-82
2023/05/01 00:10:09;;;;;;;2.10;2.00;;;14.40;63.40;14.40;96327.00;;;;5099273;28;20199;-81
2023/05/01 00:12:36;;;;;;;3.00;2.07;;;14.40;63.70;14.40;96338.00;;;;5095929;28;20819;-81
2023/05/01 00:15:04;;;;;;;2.30;2.20;;;14.40;63.80;14.40;96334.00;;;;5095616;28;20278;-82
2023/05/01 00:17:32;;;;;;;2.47;2.33;;;14.30;63.60;14.30;96329.00;;;;5092804;28;20249;-81
2023/05/01 00:19:59;;;;;;;3.60;2.60;;;14.30;63.60;14.30;96322.00;;;;5095314;28;20204;-82
2023/05/01 00:22:26;;;;;;;2.57;2.37;;;14.30;63.70;14.30;96323.00;;;;5096303;28;20215;-82
2023/05/01 00:24:55;;;;;;;3.17;2.43;;;14.30;63.80;14.30;96315.00;;;;5102307;28;20191;-82
2023/05/01 00:27:22;;;;;;;2.43;2.23;;;14.20;63.90;14.20;96314.00;;;;5101333;28;20258;-82
2023/05/01 00:29:50;;;;;;;3.07;2.87;;;14.20;64.00;14.20;96308.00;;;;5101684;28;20841;-82
2023/05/01 00:32:17;;;;;;;2.83;2.50;;;14.20;63.90;14.20;96306.00;;;;5100201;28;20207;-82
2023/05/01 00:34:47;;;;;;;2.80;2.60;;;14.20;64.10;14.20;96299.00;;;;5100864;28;20638;-82
2023/05/01 00:37:20;;;;;;;3.03;2.57;;;14.20;64.20;14.20;96304.00;;;;5095036;28;20191;-81
2023/05/01 00:39:47;;;;;;;2.83;2.63;;;14.20;64.20;14.20;96297.00;;;;5093388;28;20199;-81
2023/05/01 00:42:17;;;;;;;2.93;2.50;;;14.10;64.30;14.20;96302.00;;;;5091547;28;20215;-81
2023/05/01 00:44:44;;;;;;;2.87;2.67;;;14.10;64.40;14.20;96291.00;;;;5096770;28;20191;-81
2023/05/01 00:47:11;;;;;;;2.83;2.63;;;14.10;64.40;14.20;96297.00;;;;5092689;28;20207;-82
2023/05/01 00:49:42;;;;;;;2.90;2.70;;;14.10;64.40;14.10;96292.00;;;;5099473;28;20281;-81
2023/05/01 00:52:09;;;;;;;2.90;2.70;;;14.10;64.30;14.10;96297.00;;;;5095249;28;20199;-81
2023/05/01 00:54:37;;;;;;;2.97;2.70;;;14.10;64.50;14.10;96289.00;;;;5084913;28;20222;-82
2023/05/01 00:57:05;;;;;;;3.40;3.10;;;14.10;64.70;14.10;96294.00;;;;5091952;28;20258;-81
2023/05/01 00:59:34;;;;;;;2.93;2.67;;;14.10;64.80;14.10;96293.00;;;;5093430;28;20207;-81
2023/05/01 01:02:03;;;;;;;2.90;2.70;;;14.00;64.60;14.10;96290.00;;;;5094256;28;20259;-82
2023/05/01 01:04:32;;;;;;;2.83;2.63;;;14.00;64.50;14.10;96288.00;;;;5087759;28;20778;-80
2023/05/01 01:07:11;;;;;;;3.07;2.87;;;14.00;64.70;14.10;96279.00;;;;5098052;28;20196;-82
2023/05/01 01:09:54;;;;;;;3.00;2.80;;;14.00;64.70;14.10;96279.00;;;;5096953;28;20194;-80
2023/05/01 01:12:31;;;;;;;2.87;2.67;;;14.00;64.80;14.10;96273.00;;;;5091829;28;20695;-81
2023/05/01 01:15:15;;;;;;;2.40;2.30;;;14.00;64.80;14.10;96275.00;;;;5098161;28;20275;-80
2023/05/01 01:17:50;;;;;;;2.90;2.70;;;14.00;64.70;14.00;96269.00;;;;5095031;28;20196;-80
2023/05/01 01:20:32;;;;;;;3.00;2.80;;;14.00;64.80;14.00;96272.00;;;;5089287;28;20230;-81
2023/05/01 01:23:42;;;;;;;2.90;2.70;;;14.00;64.80;14.00;96264.00;;;;5087171;28;20246;-81
2023/05/01 01:26:30;;;;;;;2.73;2.53;;;14.00;64.90;14.00;96268.00;;;;5096501;28;20230;-82
2023/05/01 01:29:38;;;;;;;2.63;2.43;;;13.90;65.00;14.00;96264.00;;;;5096397;28;20279;-80
2023/05/01 01:32:40;;;;;;;3.17;2.97;;;13.90;64.70;14.00;96260.00;;;;5093133;28;20580;-81
2023/05/01 01:35:19;;;;;;;3.17;2.90;;;13.90;65.00;13.90;96260.00;;;;5081312;28;20263;-80
2023/05/01 01:37:55;;;;;;;3.00;2.80;;;13.90;64.90;13.90;96265.00;;;;5099483;28;20757;-80
2023/05/01 01:40:35;;;;;;;2.93;2.73;;;13.90;64.90;13.80;96264.00;;;;5098077;28;20223;-81
2023/05/01 01:43:07;;;;;;;2.83;2.53;;;13.80;64.90;13.80;96262.00;;;;5095169;28;20223;-80
2023/05/01 01:45:41;;;;;;;3.40;3.10;;;13.80;64.90;13.80;96257.00;;;;5093255;28;20251;-81
2023/05/01 01:48:13;;;;;;;2.60;2.40;;;13.80;65.00;13.80;96254.00;;;;5095634;28;20259;-80
2023/05/01 01:50:45;;;;;;;3.70;3.33;;;13.80;65.20;13.70;96249.00;;;;5092280;28;20215;-80
2023/05/01 01:53:18;;;;;;;2.97;2.73;;;13.70;65.20;13.70;96247.00;;;;5096029;28;20311;-80
2023/05/01 01:55:48;;;;;;;2.73;2.53;;;13.70;65.40;13.70;96244.00;;;;5096368;28;20251;-81
2023/05/01 01:58:18;;;;;;;3.07;2.77;;;13.70;65.50;13.60;96248.00;;;;5093684;28;20629;-80
2023/05/01 02:00:46;;;;;;;2.90;2.70;;;13.60;65.50;13.60;96245.00;;;;5078991;28;20680;-81
2023/05/01 02:03:15;;;;;;;2.60;2.40;;;13.60;65.40;13.60;96240.00;;;;5098246;28;20219;-82
2023/05/01 02:05:46;;;;;;;3.00;2.80;;;13.60;65.40;13.60;96239.00;;;;5096745;28;20736;-81
2023/05/01 02:08:15;;;;;;;2.90;2.70;;;13.60;65.60;13.60;96240.00;;;;5099934;28;20279;-81
2023/05/01 02:10:43;;;;;;;2.53;2.33;;;13.50;65.60;13.50;96233.00;;;;5089571;28;20286;-81
2023/05/01 02:13:13;;;;;;;2.83;2.63;;;13.50;65.70;13.50;96234.00;;;;5099313;28;20219;-81
2023/05/01 02:15:42;;;;;;;3.50;3.20;;;13.50;65.90;13.50;96231.00;;;;5102305;28;20283;-81
2023/05/01 02:18:10;;;;;;;2.70;2.50;;;13.50;66.00;13.50;96227.00;;;;5091939;28;20205;-81
2023/05/01 02:20:38;;;;;;;3.13;2.77;;;13.50;66.00;13.50;96229.00;;;;5100268;28;20656;-81
2023/05/01 02:23:08;;;;;;;2.80;2.60;;;13.50;66.00;13.50;96227.00;;;;5101632;28;20425;-81
2023/05/01 02:25:39;;;;;;;2.90;2.70;;;13.40;65.80;13.40;96219.00;;;;5099566;28;20199;-81
2023/05/01 02:28:14;;;;;;;2.93;2.63;;;13.40;66.00;13.40;96213.00;;;;5101374;28;20191;-81
2023/05/01 02:30:41;;;;;;;2.70;2.50;;;13.40;66.00;13.40;96213.00;;;;5100707;28;20202;-82
2023/05/01 02:33:09;;;;;;;2.90;2.70;;;13.40;66.00;13.40;96214.00;;;;5101807;28;20298;-81
2023/05/01 02:35:40;;;;;;;4.20;3.37;;;13.40;66.10;13.40;96200.00;;;;5102515;28;20279;-81
2023/05/01 02:38:09;;;;;;;3.07;2.80;;;13.40;66.20;13.40;96210.00;;;;5102573;28;20277;-81
2023/05/01 02:40:39;;;;;;;3.13;2.73;;;13.30;66.20;13.40;96204.00;;;;5103837;28;20278;-81
2023/05/01 02:43:12;;;;;;;3.43;2.70;;;13.30;66.30;13.30;96202.00;;;;5102659;28;20251;-81
2023/05/01 02:45:42;;;;;;;2.77;2.57;;;13.30;66.30;13.30;96200.00;;;;5104020;28;20195;-81
2023/05/01 02:48:16;;;;;;;3.07;2.70;;;13.30;67.10;13.30;96201.00;;;;5102497;28;20231;-81
2023/05/01 02:50:46;;;;;;;3.07;2.87;;;13.30;66.40;13.30;96205.00;;;;5090729;28;20265;-81
2023/05/01 02:53:17;;;;;;;3.03;2.83;;;13.30;66.30;13.20;96199.00;;;;5098033;28;20779;-81
2023/05/01 02:55:45;;;;;;;3.20;2.87;;;13.30;66.40;13.20;96198.00;;;;5091840;28;20199;-81
2023/05/01 02:58:16;;;;;;;3.00;2.80;;;13.20;66.40;13.20;96196.00;;;;5102368;28;20206;-81
2023/05/01 03:00:43;;;;;;;2.90;2.70;;;13.20;66.40;13.20;96196.00;;;;5100247;28;20187;-81
2023/05/01 03:03:11;;;;;;;3.20;3.00;;;13.20;66.60;13.20;96191.00;;;;5093726;28;20216;-81
2023/05/01 03:05:39;;;;;;;3.10;2.83;;;13.20;66.60;13.20;96186.00;;;;5102256;28;20192;-80
2023/05/01 03:08:07;;;;;;;3.13;2.87;;;13.20;66.60;13.10;96193.00;;;;5102971;28;20191;-81
2023/05/01 03:10:35;;;;;;;3.53;3.03;;;13.10;66.70;13.10;96192.00;;;;5104682;28;20195;-80
2023/05/01 03:13:02;;;;;;;3.27;3.07;;;13.10;66.70;13.10;96187.00;;;;5097136;28;20743;-80
2023/05/01 03:15:30;;;;;;;3.40;3.00;;;13.10;66.80;13.10;96192.00;;;;5093630;28;20195;-80
2023/05/01 03:17:57;;;;;;;3.10;2.90;;;13.10;66.80;13.00;96184.00;;;;5089013;28;20673;-80
2023/05/01 03:20:24;;;;;;;3.20;2.90;;;13.10;66.80;13.00;96187.00;;;;5098909;28;20230;-80
2023/05/01 03:22:51;;;;;;;3.17;2.97;;;13.10;66.90;13.00;96179.00;;;;5102393;28;20761;-80
2023/05/01 03:25:18;;;;;;;3.10;2.90;;;13.00;66.90;13.00;96177.00;;;;5097483;28;20258;-80
2023/05/01 03:27:47;;;;;;;3.77;3.27;;;13.00;67.00;13.00;96180.00;;;;5095435;28;20198;-81
2023/05/01 03:30:16;;;;;;;3.40;3.10;;;13.00;67.00;13.00;96181.00;;;;5101083;28;20219;-81
2023/05/01 03:32:43;;;;;;;3.10;2.90;;;13.00;67.10;12.90;96169.00;;;;5082693;28;20229;-81
2023/05/01 03:35:11;;;;;;;3.00;2.70;;;13.00;67.20;12.90;96175.00;;;;5099319;28;20325;-81
2023/05/01 03:37:38;;;;;;;3.23;3.03;;;12.90;67.20;12.90;96168.00;;;;5088933;28;20209;-81
2023/05/01 03:40:07;;;;;;;3.50;3.30;;;12.90;67.30;12.90;96171.00;;;;5099445;28;20198;-81
2023/05/01 03:42:34;;;;;;;2.90;2.70;;;12.90;67.30;12.90;96173.00;;;;5086340;28;20260;-81
2023/05/01 03:45:03;;;;;;;3.50;3.20;;;12.90;67.30;12.90;96164.00;;;;5102689;28;20243;-81
2023/05/01 03:47:30;;;;;;;3.47;3.17;;;12.90;67.50;12.90;96163.00;;;;5097678;28;20755;-81
2023/05/01 03:49:58;;;;;;;3.00;2.80;;;12.90;67.60;12.90;96155.00;;;;5104019;28;20206;-81
2023/05/01 03:52:26;;;;;;;3.30;3.00;;;12.80;67.60;12.90;96155.00;;;;5093714;28;20271;-81
2023/05/01 03:54:53;;;;;;;3.03;2.80;;;12.80;67.60;12.80;96154.00;;;;5103811;28;20639;-81
2023/05/01 03:57:22;;;;;;;3.60;3.30;;;12.80;67.50;12.80;96153.00;;;;5105621;28;20234;-81
2023/05/01 03:59:49;;;;;;;3.27;3.07;;;12.80;67.60;12.80;96152.00;;;;5100049;28;20198;-81
2023/05/01 04:02:18;;;;;;;3.93;2.90;;;12.80;67.80;12.80;96153.00;;;;5095634;28;20219;-81
2023/05/01 04:04:45;;;;;;;3.30;3.10;;;12.80;68.00;12.80;96156.00;;;;5095644;28;20303;-81
2023/05/01 04:07:13;;;;;;;3.07;2.77;;;12.80;68.00;12.80;96149.00;;;;5096038;28;20274;-80
2023/05/01 04:09:40;;;;;;;3.30;3.10;;;12.80;68.00;12.80;96158.00;;;;5096854;28;20234;-80
2023/05/01 04:12:07;;;;;;;3.93;3.50;;;12.80;68.00;12.80;96157.00;;;;5106095;28;20195;-80
2023/05/01 04:14:34;;;;;;;3.33;3.03;;;12.80;68.10;12.80;96160.00;;;;5106983;28;20243;-79
2023/05/01 04:17:02;;;;;;;3.27;2.97;;;12.80;67.90;12.90;96154.00;;;;5103928;28;20289;-80
2023/05/01 04:19:30;;;;;;;3.57;3.27;;;12.80;67.90;12.90;96158.00;;;;5107577;28;20221;-79
2023/05/01 04:21:58;;;;;;;3.53;3.00;;;12.80;68.10;12.90;96159.00;;;;5098146;28;20188;-80
2023/05/01 04:24:25;;;;;;;3.53;3.33;;;12.80;68.10;12.90;96153.00;;;;5100208;28;20919;-80
2023/05/01 04:26:52;;;;;;;3.67;3.47;;;12.80;68.10;12.90;96158.00;;;;5097682;28;20255;-80
2023/05/01 04:29:19;;;;;;;3.57;3.33;;;12.80;68.20;12.90;96159.00;;;;5096336;28;20274;-80
2023/05/01 04:31:46;;;;;;;3.63;3.33;;;12.80;68.20;12.90;96156.00;;;;5097482;28;20199;-80
2023/05/01 04:34:14;;;;;;;3.50;3.20;;;12.80;68.30;12.90;96152.00;;;;5096882;28;20239;-80
2023/05/01 04:36:43;;;;;;;3.40;3.17;;;12.80;68.40;13.00;96158.00;;;;5097598;28;20691;-80
2023/05/01 04:39:10;;;;;;;3.67;3.37;;;12.90;68.50;13.00;96161.00;;;;5086744;28;20567;-79
2023/05/01 04:41:37;;;;;;;2.97;2.77;;;12.90;68.70;13.00;96163.00;;;;5096243;28;20196;-80
2023/05/01 04:44:05;;;;;;;3.27;2.97;;;12.90;68.70;13.00;96163.00;;;;5093975;28;20230;-80
2023/05/01 04:46:32;;;;;;;3.53;3.23;;;12.90;68.70;13.10;96161.00;;;;5084178;28;20284;-79
2023/05/01 04:48:59;;;;;;;3.50;3.20;;;12.90;68.80;13.10;96171.00;;;;5099000;28;20447;-80
2023/05/01 04:51:27;;;;;;;3.47;3.17;;;13.00;68.80;13.10;96170.00;;;;5095695;28;20278;-80
2023/05/01 04:53:56;;;;;;;3.13;2.93;;;13.00;69.00;13.20;96174.00;;;;5090305;28;20261;-80
2023/05/01 04:56:24;;;;;;;3.20;3.00;;;13.00;69.00;13.20;96173.00;;;;5096515;28;20238;-79
2023/05/01 04:58:51;;;;;;;3.60;3.30;;;13.10;68.90;13.20;96181.00;;;;5087319;28;20219;-80
2023/05/01 05:01:19;;;;;;;3.93;3.63;;;13.10;68.80;13.20;96175.00;;;;5093813;28;20221;-80
2023/05/01 05:03:46;;;;;;;3.67;3.33;;;13.10;68.80;13.30;96182.00;;;;5090813;28;20204;-79
2023/05/01 05:06:13;;;;;;;3.53;3.17;;;13.10;68.60;13.30;96179.00;;;;5100183;28;20278;-79
2023/05/01 05:08:41;;;;;;;3.37;3.17;;;13.20;68.60;13.30;96171.00;;;;5094838;28;20274;-80
2023/05/01 05:11:09;;;;;;;3.60;3.30;;;13.20;68.50;13.30;96177.00;;;;5091058;28;20222;-80
2023/05/01 05:13:37;;;;;;;3.73;3.43;;;13.20;68.60;13.40;96179.00;;;;5090446;28;20215;-80
2023/05/01 05:16:04;;;;;;;3.90;3.60;;;13.20;68.70;13.40;96178.00;;;;5090967;28;20282;-80
2023/05/01 05:18:32;;;;;;;3.37;3.10;;;13.20;68.90;13.40;96180.00;;;;5083094;28;20196;-79
2023/05/01 05:21:03;;;;;;;4.70;3.47;;;13.30;69.00;13.50;96172.00;;;;5087547;28;20198;-80
2023/05/01 05:23:30;;;;;;;3.40;3.10;;;13.30;69.10;13.50;96174.00;;;;5097445;28;20211;-80
2023/05/01 05:25:58;;;;;;;3.70;3.50;;;13.40;69.20;13.60;96180.00;;;;5093725;28;20215;-80
2023/05/01 05:28:28;;;;;;;3.90;3.50;;;13.40;69.20;13.70;96177.00;;;;5096887;28;20581;-80
2023/05/01 05:30:56;;;;;;;3.90;3.50;;;13.40;69.20;13.70;96165.00;;;;5087905;28;20202;-81
2023/05/01 05:33:24;;;;;;;4.40;3.93;;;13.50;69.10;13.80;96172.00;;;;5092902;28;20223;-81
2023/05/01 05:35:51;;;;;;;3.33;3.13;;;13.50;69.00;13.90;96168.00;;;;5102621;28;20226;-80
2023/05/01 05:38:19;;;;;;;3.80;3.50;;;13.60;69.10;13.90;96169.00;;;;5104073;28;20230;-81
2023/05/01 05:40:46;;;;;;;3.40;3.00;;;13.70;69.20;14.00;96170.00;;;;5099521;28;20278;-81
2023/05/01 05:43:14;;;;;;;3.47;3.23;;;13.70;69.10;14.00;96175.00;;;;5099698;28;20311;-81
2023/05/01 05:45:42;;;;;;;3.57;3.30;;;13.70;69.10;14.10;96173.00;;;;5104483;28;20239;-81
2023/05/01 05:48:09;;;;;;;3.47;3.27;;;13.80;69.10;14.20;96164.00;;;;5096602;28;20199;-81
2023/05/01 05:50:36;;;;;;;4.10;3.30;;;13.90;69.10;14.20;96164.00;;;;5102735;28;20195;-81
2023/05/01 05:53:04;;;;;;;3.70;3.50;;;13.90;68.90;14.30;96167.00;;;;5101409;28;20282;-81
2023/05/01 05:55:31;;;;;;;3.17;2.87;;;14.00;69.00;14.30;96172.00;;;;5102798;28;20222;-81
2023/05/01 05:57:58;;;;;;;3.80;3.47;;;14.10;69.10;14.40;96182.00;;;;5105163;28;20218;-81
2023/05/01 06:00:26;;;;;;;3.20;3.00;;;14.10;68.90;14.50;96180.00;;;;5093876;28;20256;-80
2023/05/01 06:02:55;;;;;;;3.70;3.40;;;14.20;68.90;14.50;96175.00;;;;5095802;28;20235;-80
2023/05/01 06:05:22;;;;;;;3.70;3.40;;;14.20;68.80;14.60;96175.00;;;;5094936;28;20699;-80
2023/05/01 06:07:50;;;;;;;3.97;3.67;;;14.30;69.00;14.70;96171.00;;;;5094746;28;20258;-81
2023/05/01 06:10:17;;;;;;;3.57;3.27;;;14.40;69.00;14.80;96172.00;;;;5093649;28;20204;-81
2023/05/01 06:12:45;;;;;;;3.53;3.23;;;14.40;68.70;14.90;96174.00;;;;5097297;28;20242;-80
2023/05/01 06:15:15;;;;;;;3.63;3.33;;;14.50;68.70;14.90;96176.00;;;;5093314;28;20245;-80
2023/05/01 06:17:43;;;;;;;3.70;3.40;;;14.50;68.50;15.00;96171.00;;;;5095499;28;20510;-79
2023/05/01 06:20:15;;;;;;;3.27;3.07;;;14.70;68.30;15.10;96172.00;;;;5104415;28;20188;-80
2023/05/01 06:22:43;;;;;;;3.17;2.97;;;14.70;68.40;15.20;96170.00;;;;5104858;28;20210;-80
2023/05/01 06:25:10;;;;;;;3.50;3.20;;;14.80;68.50;15.40;96176.00;;;;5101605;28;20292;-82
2023/05/01 06:27:37;;;;;;;3.33;3.13;;;14.90;68.30;15.50;96175.00;;;;5100429;28;20191;-82
2023/05/01 06:30:07;;;;;;;3.53;3.23;;;15.00;68.40;15.60;96171.00;;;;5099900;28;20191;-82
2023/05/01 06:32:34;;;;;;;3.90;3.60;;;15.10;68.20;15.80;96186.00;;;;5094156;28;20202;-80
2023/05/01 06:35:02;;;;;;;4.10;3.70;;;15.20;67.90;15.90;96187.00;;;;5091658;28;20231;-82
2023/05/01 06:37:31;;;;;;;3.67;3.37;;;15.30;67.60;15.90;96184.00;;;;5096691;28;20222;-82
2023/05/01 06:39:58;;;;;;;3.30;3.07;;;15.40;67.00;16.00;96182.00;;;;5098538;28;20195;-83
2023/05/01 06:42:25;;;;;;;3.83;3.43;;;15.50;67.70;16.10;96187.00;;;;5103436;28;20207;-82
2023/05/01 06:44:52;;;;;;;3.47;3.13;;;15.50;66.90;16.20;96182.00;;;;5109039;28;20210;-82
2023/05/01 06:47:20;;;;;;;3.40;3.20;;;15.60;66.70;16.20;96191.00;;;;5112786;28;20196;-82
2023/05/01 06:49:47;;;;;;;3.80;3.50;;;15.60;66.90;16.30;96187.00;;;;5103055;28;20258;-84
2023/05/01 06:52:15;;;;;;;3.93;3.37;;;15.70;66.70;16.40;96193.00;;;;5099718;28;20200;-82
2023/05/01 06:54:43;;;;;;;4.33;3.63;;;15.80;66.60;16.50;96190.00;;;;5098544;28;20747;-82
2023/05/01 06:57:11;;;;;;;3.23;3.03;;;15.90;66.20;16.60;96192.00;;;;5096339;28;20226;-82
2023/05/01 06:59:39;;;;;;;2.90;2.70;;;15.90;66.40;16.70;96194.00;;;;5093936;28;20624;-83
2023/05/01 07:02:06;;;;;;;4.27;3.93;;;16.00;66.70;16.80;96192.00;;;;5086039;28;20191;-83
2023/05/01 07:04:33;;;;;;;3.57;3.33;;;16.10;66.70;16.90;96185.00;;;;5093777;28;20309;-82
2023/05/01 07:07:01;;;;;;;3.30;3.10;;;16.20;66.50;17.00;96183.00;;;;5087978;28;20290;-82
2023/05/01 07:09:29;;;;;;;3.27;3.07;;;16.30;66.40;17.10;96181.00;;;;5090590;28;20192;-81
2023/05/01 07:11:59;;;;;;;3.83;3.53;;;16.40;66.20;17.10;96189.00;;;;5077964;28;20607;-81
2023/05/01 07:14:26;;;;;;;3.57;3.27;;;16.40;65.90;17.20;96184.00;;;;5088981;28;20226;-84
2023/05/01 07:16:54;;;;;;;3.70;3.43;;;16.50;65.90;17.30;96196.00;;;;5082216;28;20226;-82
2023/05/01 07:19:21;;;;;;;3.87;3.20;;;16.60;65.70;17.40;96187.00;;;;5082325;28;20280;-82
2023/05/01 07:21:48;;;;;;;3.00;2.80;;;16.60;65.50;17.50;96178.00;;;;5090570;28;20214;-83
2023/05/01 07:24:16;;;;;;;3.80;3.43;;;16.70;65.60;17.50;96174.00;;;;5088065;28;20229;-83
2023/05/01 07:26:43;;;;;;;3.17;2.97;;;16.80;65.50;17.60;96183.00;;;;5093611;28;20222;-82
2023/05/01 07:29:12;;;;;;;3.43;3.13;;;16.90;65.00;17.60;96175.00;;;;5095770;28;20619;-81
2023/05/01 07:31:40;;;;;;;3.57;3.27;;;16.90;64.80;17.70;96177.00;;;;5096302;28;20573;-81
2023/05/01 07:34:08;;;;;;;3.20;2.90;;;17.00;65.00;17.70;96183.00;;;;5093396;28;20215;-81
2023/05/01 07:36:35;;;;;;;3.60;3.30;;;17.10;64.80;17.80;96184.00;;;;5086985;28;20731;-81
2023/05/01 07:39:03;;;;;;;3.90;3.60;;;17.10;64.70;17.90;96177.00;;;;5091696;28;20185;-81
2023/05/01 07:41:32;;;;;;;3.07;2.87;;;17.20;64.50;17.90;96180.00;;;;5092999;28;20199;-83
2023/05/01 07:43:59;;;;;;;3.00;2.80;;;17.20;64.10;18.00;96182.00;;;;5088419;28;20251;-83
2023/05/01 07:46:29;;;;;;;3.57;3.37;;;17.30;64.00;18.10;96193.00;;;;5087456;28;20302;-83
2023/05/01 07:48:57;;;;;;;3.33;3.10;;;17.30;63.60;18.10;96193.00;;;;5097317;28;20215;-82
2023/05/01 07:51:25;;;;;;;3.30;3.00;;;17.40;63.40;18.20;96191.00;;;;5078353;28;20196;-82
2023/05/01 07:53:52;;;;;;;3.30;3.10;;;17.40;63.20;18.20;96189.00;;;;5090261;28;20211;-83
2023/05/01 07:56:20;;;;;;;3.70;3.40;;;17.50;63.80;18.30;96195.00;;;;5088580;28;20289;-83
2023/05/01 07:58:47;;;;;;;3.60;3.30;;;17.50;63.30;18.30;96198.00;;;;5088414;28;20191;-83
2023/05/01 08:01:14;;;;;;;3.57;3.27;;;17.60;62.80;18.30;96194.00;;;;5088127;28;20203;-82
2023/05/01 08:03:43;;;;;;;3.37;3.17;;;17.60;62.20;18.30;96193.00;;;;5087025;28;20246;-83
2023/05/01 08:06:10;;;;;;;3.60;3.33;;;17.60;62.20;18.20;96182.00;;;;5087748;28;20863;-83
2023/05/01 08:08:37;;;;;;;3.17;2.97;;;17.70;62.30;18.30;96187.00;;;;5086916;28;20200;-82
2023/05/01 08:11:05;;;;;;;3.37;3.17;;;17.70;61.70;18.20;96193.00;;;;5088294;28;20187;-83
2023/05/01 08:13:32;;;;;;;3.50;3.17;;;17.70;61.90;18.30;96197.00;;;;5085860;28;20310;-82
2023/05/01 08:16:04;;;;;;;3.30;3.10;;;17.70;62.00;18.30;96196.00;;;;5087082;28;20195;-83
2023/05/01 08:18:31;;;;;;;3.67;3.40;;;17.70;62.20;18.30;96197.00;;;;5092226;28;20195;-82
2023/05/01 08:21:00;;;;;;;3.70;3.40;;;17.70;62.20;18.30;96207.00;;;;5089893;28;20278;-82
2023/05/01 08:23:27;;;;;;;3.87;3.57;;;17.70;61.80;18.40;96209.00;;;;5088404;28;20302;-82
2023/05/01 08:25:55;;;;;;;3.60;3.40;;;17.70;62.30;18.40;96211.00;;;;5088099;28;20226;-82
2023/05/01 08:28:24;;;;;;;3.70;3.40;;;17.80;62.80;18.50;96202.00;;;;5091866;28;20199;-82
2023/05/01 08:30:51;;;;;;;4.20;3.90;;;17.80;62.70;18.60;96213.00;;;;5089062;28;20214;-83
2023/05/01 08:33:19;;;;;;;3.23;3.03;;;17.90;62.60;18.60;96211.00;;;;5090158;28;20722;-82
2023/05/01 08:35:47;;;;;;;3.30;3.10;;;17.90;62.20;18.70;96211.00;;;;5090007;28;20354;-82
2023/05/01 08:38:16;;;;;;;3.53;3.20;;;17.90;62.10;18.70;96211.00;;;;5092874;28;20202;-82
2023/05/01 08:40:50;;;;;;;3.70;3.37;;;18.00;62.10;18.80;96210.00;;;;5089452;28;20191;-82
2023/05/01 08:43:18;;;;;;;4.03;3.63;;;18.00;62.10;18.90;96216.00;;;;5083685;28;21145;-82
2023/05/01 08:45:48;;;;;;;4.07;3.77;;;18.10;63.10;18.90;96212.00;;;;5086109;28;20216;-82
2023/05/01 08:48:17;;;;;;;4.10;3.70;;;18.20;62.30;19.00;96210.00;;;;5089690;28;20207;-82
2023/05/01 08:50:47;;;;;;;3.30;3.10;;;18.20;62.30;19.10;96223.00;;;;5091588;28;20659;-82
2023/05/01 08:53:19;;;;;;;3.93;3.63;;;18.30;62.10;19.10;96218.00;;;;5086674;28;20854;-82
2023/05/01 08:55:47;;;;;;;4.00;3.70;;;18.30;61.90;19.20;96222.00;;;;5089792;28;20256;-82
2023/05/01 08:58:17;;;;;;;3.77;3.47;;;18.40;62.00;19.20;96220.00;;;;5085975;28;20195;-82
2023/05/01 09:00:47;;;;;;;3.87;3.57;;;18.40;61.90;19.30;96214.00;;;;5081939;28;20227;-82
2023/05/01 09:03:15;;;;;;;4.07;3.77;;;18.50;61.60;19.30;96216.00;;;;5085801;28;20215;-82
2023/05/01 09:05:42;;;;;;;4.47;4.07;;;18.50;61.50;19.30;96233.00;;;;5082356;28;20683;-83
2023/05/01 09:08:10;;;;;;;4.17;3.87;;;18.60;61.50;19.40;96222.00;;;;5081579;28;20215;-81
2023/05/01 09:10:46;;;;;;;3.77;3.53;;;18.60;61.30;19.40;96221.00;;;;5087225;28;20282;-83
2023/05/01 09:13:13;;;;;;;3.77;3.57;;;18.70;61.60;19.40;96228.00;;;;5088911;28;20207;-83
2023/05/01 09:15:40;;;;;;;3.57;3.30;;;18.70;61.20;19.40;96230.00;;;;5094532;28;20601;-82
2023/05/01 09:18:09;;;;;;;3.73;3.43;;;18.70;61.10;19.50;96231.00;;;;5096697;28;20756;-83
2023/05/01 09:20:38;;;;;;;3.43;3.23;;;18.80;61.00;19.50;96227.00;;;;5101770;28;20199;-82
2023/05/01 09:23:06;;;;;;;4.00;3.70;;;18.80;60.70;19.50;96223.00;;;;5103038;28;20279;-82
2023/05/01 09:25:33;;;;;;;4.17;3.77;;;18.90;60.80;19.50;96230.00;;;;5104382;28;20230;-81
2023/05/01 09:28:05;;;;;;;3.70;3.40;;;18.90;60.90;19.50;96232.00;;;;5100497;28;20655;-82
2023/05/01 09:30:35;;;;;;;3.43;3.13;;;18.90;60.40;19.60;96231.00;;;;5090993;28;20198;-82
2023/05/01 09:33:11;;;;;;;3.47;3.20;;;18.90;60.80;19.60;96233.00;;;;5090021;28;20241;-82
2023/05/01 09:35:50;;;;;;;4.67;3.43;;;19.00;60.00;19.60;96238.00;;;;5087843;28;20226;-82
2023/05/01 09:38:20;;;;;;;3.50;3.20;;;19.00;60.00;19.60;96235.00;;;;5086713;28;20565;-82
2023/05/01 09:40:48;;;;;;;3.33;3.13;;;19.00;60.40;19.60;96236.00;;;;5086467;28;20188;-82
2023/05/01 09:43:27;;;;;;;3.53;3.33;;;19.00;60.60;19.60;96233.00;;;;5092099;28;20243;-82
2023/05/01 09:46:06;;;;;;;3.63;3.33;;;19.10;60.00;19.70;96236.00;;;;5080543;28;20242;-82
2023/05/01 09:48:33;;;;;;;3.47;3.17;;;19.10;60.40;19.70;96231.00;;;;5091177;28;20283;-82
2023/05/01 09:51:00;;;;;;;3.80;3.50;;;19.10;60.80;19.70;96227.00;;;;5081029;28;20295;-82
2023/05/01 09:53:38;;;;;;;3.63;3.33;;;19.10;60.70;19.80;96229.00;;;;5088009;28;20215;-82
2023/05/01 09:56:06;;;;;;;3.73;3.43;;;19.20;59.90;19.80;96241.00;;;;5085873;28;20278;-82
2023/05/01 09:58:35;;;;;;;3.37;3.07;;;19.20;60.80;19.90;96237.00;;;;5088004;28;20858;-83
2023/05/01 10:01:02;;;;;;;3.67;3.37;;;19.20;60.90;19.90;96244.00;;;;5090442;28;20677;-82
2023/05/01 10:03:30;;;;;;;3.93;3.63;;;19.20;60.60;19.90;96244.00;;;;5084984;28;20218;-82
2023/05/01 10:06:01;;;;;;;3.77;3.47;;;19.30;60.60;20.00;96244.00;;;;5085207;28;20290;-84
2023/05/01 10:08:48;;;;;;;3.60;3.30;;;19.30;61.40;20.00;96242.00;;;;5090312;28;20694;-83
2023/05/01 10:11:21;;;;;;;3.80;3.50;;;19.40;59.50;20.00;96241.00;;;;5079562;28;20199;-82
2023/05/01 10:14:07;;;;;;;3.13;2.93;;;19.40;60.50;20.00;96240.00;;;;5089091;28;20242;-83
2023/05/01 10:16:37;;;;;;;3.57;3.27;;;19.40;59.20;20.00;96242.00;;;;5085122;28;20196;-83
2023/05/01 10:19:04;;;;;;;3.80;3.40;;;19.40;60.10;20.00;96241.00;;;;5068405;28;20237;-82
2023/05/01 10:21:33;;;;;;;3.33;3.13;;;19.40;60.30;20.00;96244.00;;;;5087317;28;20219;-82
2023/05/01 10:24:10;;;;;;;3.53;3.33;;;19.40;60.40;20.10;96240.00;;;;5089640;28;20254;-82
2023/05/01 10:26:39;;;;;;;3.80;3.50;;;19.50;60.50;20.10;96241.00;;;;5090826;28;20211;-83
2023/05/01 10:29:10;;;;;;;3.70;3.50;;;19.50;60.40;20.20;96246.00;;;;5090302;28;20191;-81
2023/05/01 10:31:38;;;;;;;3.63;3.33;;;19.50;60.50;20.20;96247.00;;;;5088790;28;20191;-82
2023/05/01 10:34:06;;;;;;;3.27;3.07;;;19.60;60.50;20.20;96248.00;;;;5099011;28;20211;-80
2023/05/01 10:36:41;;;;;;;3.70;3.40;;;19.60;60.30;20.20;96238.00;;;;5098467;28;20260;-81
2023/05/01 10:39:34;;;;;;;3.63;3.43;;;19.60;59.80;20.10;96248.00;;;;5082298;28;20328;-81
2023/05/01 10:42:09;;;;;;;3.50;3.20;;;19.60;59.10;20.10;96242.00;;;;5090946;28;20252;-81
2023/05/01 10:44:38;;;;;;;3.43;3.13;;;19.60;60.00;20.10;96253.00;;;;5093936;28;20219;-82
2023/05/01 10:47:47;;;;;;;2.93;2.73;;;19.60;59.70;20.00;96248.00;;;;5069576;28;20215;-80
2023/05/01 10:50:15;;;;;;;3.50;3.20;;;19.60;59.30;20.00;96246.00;;;;5088506;28;20202;-81
2023/05/01 10:53:19;;;;;;;3.13;2.93;;;19.50;60.40;19.90;96248.00;;;;5092343;28;20223;-80
2023/05/01 10:55:49;;;;;;;3.27;3.07;;;19.50;59.40;19.90;96239.00;;;;5085657;28;20199;-81
2023/05/01 10:58:56;;;;;;;3.50;3.20;;;19.40;60.20;19.80;96235.00;;;;5094504;28;20291;-80
2023/05/01 11:01:34;;;;;;;3.50;3.20;;;19.40;59.60;19.70;96243.00;;;;5088317;28;20209;-81
2023/05/01 11:04:06;;;;;;;3.30;3.00;;;19.40;60.10;19.60;96246.00;;;;5093176;28;20233;-82
2023/05/01 11:06:36;;;;;;;3.40;3.13;;;19.30;60.70;19.50;96236.00;;;;5088100;28;20918;-80